Time;durP1;ratioP1;P1;durP2;ratioP2;P2;SDS_P1;SDS_P2;PMS_P1;PMS_P2;Temp;Humidity;BMP_temperature;BMP_pressure;BME280_temperature;BME280_humidity;BME280_pressure;Samples;Min_cycle;Max_cycle;Signal;HPM_P1;HPM_P2
2021/04/13 00:01:12;;;;;;;19.80;14.15;;;;;;;0.36;77.76;101049.53;4946054;28;20066;-68
2021/04/13 00:03:41;;;;;;;18.40;13.40;;;;;;;0.36;77.73;101056.47;4946161;28;20066;-68
2021/04/13 00:06:07;;;;;;;18.02;13.60;;;;;;;0.33;77.70;101051.25;4945777;28;20031;-68
2021/04/13 00:08:33;;;;;;;19.90;12.88;;;;;;;0.31;77.50;101052.94;4930297;28;20078;-68
2021/04/13 00:11:03;;;;;;;17.90;14.85;;;;;;;0.28;77.49;101052.91;4927410;29;20559;-69
2021/04/13 00:13:29;;;;;;;19.50;14.35;;;;;;;0.25;77.80;101051.16;4927504;29;20046;-69
2021/04/13 00:16:03;;;;;;;20.17;15.13;;;;;;;0.24;77.54;101044.19;4927962;29;20035;-68
2021/04/13 00:18:31;;;;;;;21.30;16.23;;;;;;;0.20;77.44;101047.63;4928797;29;20063;-69
2021/04/13 00:21:15;;;;;;;20.05;14.05;;;;;;;0.20;77.88;101047.63;4912091;29;20654;-69
2021/04/13 00:23:41;;;;;;;19.17;14.70;;;;;;;0.19;77.86;101048.44;4955017;28;20046;-69
2021/04/13 00:26:09;;;;;;;22.23;16.23;;;;;;;0.19;78.21;101053.63;4950638;28;20050;-69
2021/04/13 00:28:43;;;;;;;25.45;17.00;;;;;;;0.18;77.78;101055.38;4950859;28;20069;-68
2021/04/13 00:31:08;;;;;;;25.02;15.88;;;;;;;0.32;78.27;101045.19;4952819;28;20067;-50
2021/04/13 00:33:37;;;;;;;21.55;15.02;;;;;;;0.46;76.86;101049.66;4952534;28;20039;-67
2021/04/13 00:36:10;;;;;;;18.58;14.93;;;;;;;0.40;76.39;101047.88;4957660;28;20125;-67
2021/04/13 00:38:44;;;;;;;24.23;15.75;;;;;;;0.30;76.77;101043.44;4950023;28;20041;-68
2021/04/13 00:41:18;;;;;;;28.30;19.88;;;;;;;0.21;76.67;101050.22;4950549;28;20045;-68
2021/04/13 00:44:01;;;;;;;25.10;18.33;;;;;;;0.15;76.96;101049.28;4942117;29;20047;-68
2021/04/13 00:46:40;;;;;;;31.95;20.23;;;;;;;0.05;78.03;101044.78;4920052;29;20043;-68
2021/04/13 00:49:06;;;;;;;25.45;17.63;;;;;;;0.01;78.00;101043.91;4936471;29;20094;-68
2021/04/13 00:51:35;;;;;;;25.95;17.45;;;;;;;0.03;77.92;101047.38;4941902;28;20110;-69
2021/04/13 00:54:04;;;;;;;27.27;19.83;;;;;;;0.03;78.33;101049.13;4955011;28;20499;-68
2021/04/13 00:56:31;;;;;;;25.50;18.50;;;;;;;0.04;77.95;101038.75;4954800;28;20043;-69
2021/04/13 00:59:18;;;;;;;25.90;18.08;;;;;;;-0.02;78.23;101051.63;4952133;28;20046;-68
2021/04/13 01:01:50;;;;;;;27.45;19.35;;;;;;;-0.08;78.17;101046.34;4936628;28;20043;-69
2021/04/13 01:04:31;;;;;;;22.08;15.88;;;;;;;-0.13;78.74;101046.28;4937541;28;20035;-68
2021/04/13 01:07:12;;;;;;;21.13;15.75;;;;;;;-0.06;78.51;101049.84;4954312;28;20038;-68
2021/04/13 01:10:05;;;;;;;21.63;16.23;;;;;;;-0.04;78.76;101046.41;4954908;28;20519;-69
2021/04/13 01:12:33;;;;;;;21.20;15.55;;;;;;;-0.02;78.47;101039.53;4955070;28;20499;-69
2021/04/13 01:15:01;;;;;;;21.85;16.20;;;;;;;0.00;78.60;101044.75;4954848;28;20063;-68
2021/04/13 01:17:28;;;;;;;28.45;19.95;;;;;;;-0.02;77.45;101042.13;4954280;28;20105;-68
2021/04/13 01:20:11;;;;;;;22.63;17.10;;;;;;;-0.04;78.34;101043.81;4954453;28;20110;-69
2021/04/13 01:25:34;;;;;;;20.50;14.90;;;;;;;-0.07;78.19;101045.53;4953826;28;20434;-68
2021/04/13 01:28:09;;;;;;;24.55;16.15;;;;;;;-0.09;77.64;101049.81;4954175;28;20031;-68
2021/04/13 01:30:46;;;;;;;27.17;19.80;;;;;;;-0.13;77.41;101040.22;4954534;28;20395;-69
2021/04/13 01:33:38;;;;;;;20.67;15.20;;;;;;;-0.17;77.57;101046.22;4954586;28;20525;-68
2021/04/13 01:36:16;;;;;;;25.15;16.98;;;;;;;-0.18;78.07;101049.66;4952368;28;20494;-67
2021/04/13 01:39:16;;;;;;;25.00;16.52;;;;;;;-0.26;77.71;101047.81;4954165;28;20051;-67
2021/04/13 01:41:59;;;;;;;26.83;19.98;;;;;;;-0.32;78.41;101042.56;4941647;28;20086;-67
2021/04/13 01:44:49;;;;;;;26.33;17.83;;;;;;;-0.31;78.10;101051.19;4953957;28;20027;-67
2021/04/13 01:47:18;;;;;;;23.50;16.23;;;;;;;-0.30;77.89;101047.75;4955022;28;20439;-68
2021/04/13 01:49:50;;;;;;;23.02;17.73;;;;;;;-0.31;78.56;101043.44;4955997;28;20435;-68
2021/04/13 01:52:32;;;;;;;20.52;16.13;;;;;;;-0.33;77.54;101051.16;4954346;28;20035;-68
2021/04/13 01:55:04;;;;;;;23.10;15.60;;;;;;;-0.33;78.33;101047.72;4954376;28;20101;-68
2021/04/13 01:57:43;;;;;;;20.85;15.35;;;;;;;-0.35;77.92;101054.59;4955293;28;20094;-67
2021/04/13 02:00:38;;;;;;;23.13;16.23;;;;;;;-0.35;77.77;101058.03;4938341;28;20087;-68
2021/04/13 02:03:03;;;;;;;21.92;16.27;;;;;;;-0.38;77.36;101058.00;4960102;28;20039;-68
2021/04/13 02:05:31;;;;;;;24.13;16.60;;;;;;;-0.39;78.07;101061.44;4953001;28;20035;-68
2021/04/13 02:08:08;;;;;;;21.40;15.52;;;;;;;-0.38;77.95;101067.50;4953214;28;20059;-69
2021/04/13 02:10:56;;;;;;;23.30;15.95;;;;;;;-0.40;77.74;101064.88;4957094;28;20490;-68
2021/04/13 02:13:30;;;;;;;22.75;15.82;;;;;;;-0.42;78.45;101076.91;4958577;28;20035;-69
2021/04/13 02:15:56;;;;;;;21.73;15.68;;;;;;;-0.46;77.94;101076.00;4969653;28;20050;-68
2021/04/13 02:18:43;;;;;;;23.33;15.95;;;;;;;-0.45;78.04;101082.06;4966976;28;20459;-68
2021/04/13 02:21:19;;;;;;;21.15;14.50;;;;;;;-0.47;77.94;101071.69;4958017;28;20074;-67
2021/04/13 02:23:50;;;;;;;25.25;16.20;;;;;;;-0.49;78.44;101075.97;4948207;28;20039;-67
2021/04/13 02:26:17;;;;;;;25.25;18.15;;;;;;;-0.50;78.27;101076.78;4936351;28;20491;-68
2021/04/13 02:28:46;;;;;;;25.23;17.23;;;;;;;-0.51;78.38;101074.19;4953019;28;20066;-68
2021/04/13 02:31:36;;;;;;;25.73;18.98;;;;;;;-0.52;78.28;101070.72;4953103;28;20090;-68
2021/04/13 02:34:03;;;;;;;32.80;20.30;;;;;;;-0.51;78.45;101079.38;4952580;28;20047;-68
2021/04/13 02:36:32;;;;;;;29.35;21.83;;;;;;;-0.59;78.56;101070.59;4935428;28;20082;-67
2021/04/13 02:38:59;;;;;;;31.77;23.00;;;;;;;-0.64;78.22;101075.69;4952563;28;20053;-69
2021/04/13 02:41:36;;;;;;;34.85;22.20;;;;;;;-0.68;78.15;101079.94;4952884;28;20050;-68
2021/04/13 02:44:08;;;;;;;25.98;18.00;;;;;;;-0.61;78.30;101072.31;4952840;28;20487;-68
2021/04/13 02:46:36;;;;;;;29.08;19.38;;;;;;;-0.61;78.60;101078.34;4952040;28;20035;-68
2021/04/13 02:49:04;;;;;;;26.25;16.25;;;;;;;-0.61;79.27;101075.75;4952728;28;20039;-68
2021/04/13 02:51:32;;;;;;;25.85;18.88;;;;;;;-0.61;78.55;101070.59;4952714;28;20067;-68
2021/04/13 02:53:59;;;;;;;23.05;17.17;;;;;;;-0.61;78.08;101072.31;4953091;28;20526;-67
2021/04/13 02:56:34;;;;;;;27.40;17.08;;;;;;;-0.64;78.52;101073.09;4953613;28;20488;-67
2021/04/13 02:59:28;;;;;;;23.17;16.25;;;;;;;-0.63;78.40;101085.22;4953882;28;20046;-67
2021/04/13 03:02:05;;;;;;;22.58;15.75;;;;;;;-0.62;78.58;101073.13;4951771;28;20495;-69
2021/04/13 03:04:45;;;;;;;21.08;15.07;;;;;;;-0.58;78.31;101078.41;4943726;28;20086;-68
2021/04/13 03:07:17;;;;;;;33.88;21.58;;;;;;;-0.59;78.43;101079.25;4933128;29;20048;-69
2021/04/13 03:09:43;;;;;;;23.05;16.95;;;;;;;-0.55;78.25;101075.84;4933421;29;20384;-69
2021/04/13 03:12:10;;;;;;;22.83;16.75;;;;;;;-0.53;78.49;101083.66;4958752;28;20126;-69
2021/04/13 03:14:39;;;;;;;24.92;15.98;;;;;;;-0.49;78.43;101082.88;4966999;28;20043;-69
2021/04/13 03:17:11;;;;;;;26.15;16.83;;;;;;;-0.44;78.06;101084.69;4972588;28;20054;-67
2021/04/13 03:19:38;;;;;;;23.67;17.15;;;;;;;-0.40;77.84;101079.53;4973419;28;20061;-68
2021/04/13 03:22:06;;;;;;;25.38;15.77;;;;;;;-0.38;77.54;101083.91;4957139;28;20039;-67
2021/04/13 03:24:51;;;;;;;28.33;20.85;;;;;;;-0.35;77.20;101083.94;4953475;28;20502;-68
2021/04/13 03:27:26;;;;;;;33.83;21.45;;;;;;;-0.35;77.46;101086.53;4953886;28;20057;-68
2021/04/13 03:30:01;;;;;;;24.92;18.83;;;;;;;-0.35;77.24;101093.44;4954861;28;20031;-68
2021/04/13 03:32:32;;;;;;;35.10;23.58;;;;;;;-0.39;77.89;101089.94;4954502;28;20035;-67
2021/04/13 03:34:58;;;;;;;24.08;16.25;;;;;;;-0.45;77.42;101088.09;4952939;28;20036;-68
2021/04/13 03:37:25;;;;;;;27.05;19.40;;;;;;;-0.45;77.64;101095.00;4952322;28;20121;-69
2021/04/13 03:39:52;;;;;;;28.20;20.77;;;;;;;-0.46;77.72;101095.88;4952782;28;20054;-69
2021/04/13 03:42:25;;;;;;;31.60;20.52;;;;;;;-0.50;77.87;101086.28;4952119;28;20109;-68
2021/04/13 03:44:51;;;;;;;26.50;19.35;;;;;;;-0.53;78.10;101094.88;4952271;28;20039;-67
2021/04/13 03:47:20;;;;;;;25.35;17.42;;;;;;;-0.54;78.23;101093.16;4951374;28;20094;-68
2021/04/13 03:49:47;;;;;;;23.85;17.75;;;;;;;-0.54;77.83;101085.38;4951303;28;20027;-70
2021/04/13 03:52:21;;;;;;;30.60;21.83;;;;;;;-0.55;77.91;101087.94;4951695;28;20036;-68
2021/04/13 03:54:46;;;;;;;29.83;21.17;;;;;;;-0.60;78.16;101094.75;4951420;28;20035;-68
2021/04/13 03:57:12;;;;;;;34.05;20.42;;;;;;;-0.68;78.13;101092.03;4950796;28;20049;-69
2021/04/13 03:59:44;;;;;;;32.63;20.38;;;;;;;-0.72;78.46;101098.00;4951172;28;20074;-68
2021/04/13 04:02:11;;;;;;;35.40;24.02;;;;;;;-0.76;78.59;101101.41;4948504;28;20092;-70
2021/04/13 04:04:42;;;;;;;29.80;21.25;;;;;;;-0.83;78.54;101092.63;4951308;28;20078;-69
2021/04/13 04:07:38;;;;;;;29.17;19.70;;;;;;;-0.82;78.95;101098.69;4950862;28;20503;-68
2021/04/13 04:10:41;;;;;;;29.13;20.23;;;;;;;-0.82;78.88;101094.38;4951262;28;20106;-69
2021/04/13 04:13:13;;;;;;;34.60;21.67;;;;;;;-0.81;78.74;101097.81;4942006;28;20031;-69
2021/04/13 04:15:44;;;;;;;31.42;20.60;;;;;;;-0.84;78.90;101090.00;4951057;28;20035;-68
2021/04/13 04:18:27;;;;;;;36.22;23.80;;;;;;;-0.84;79.09;101095.19;4933868;28;20038;-68
2021/04/13 04:20:53;;;;;;;31.92;21.80;;;;;;;-0.76;78.77;101099.66;4951241;28;20031;-69
2021/04/13 04:23:28;;;;;;;27.23;18.02;;;;;;;-0.72;78.75;101098.00;4951246;28;20034;-68
2021/04/13 04:26:00;;;;;;;27.27;18.07;;;;;;;-0.60;78.76;101094.75;4933690;28;20054;-68
2021/04/13 04:28:28;;;;;;;27.98;18.90;;;;;;;-0.54;77.94;101087.97;4951155;28;20043;-69
2021/04/13 04:30:54;;;;;;;29.30;18.77;;;;;;;-0.48;78.41;101094.97;4960501;28;20031;-68
2021/04/13 04:33:38;;;;;;;22.50;16.40;;;;;;;-0.42;78.15;101097.63;4966271;28;20039;-68
2021/04/13 04:36:31;;;;;;;25.27;17.60;;;;;;;-0.39;77.60;101102.91;4950506;28;20122;-68
2021/04/13 04:39:29;;;;;;;29.17;19.75;;;;;;;-0.40;77.94;101108.91;4943701;28;20094;-67
2021/04/13 04:42:10;;;;;;;34.17;22.88;;;;;;;-0.40;77.95;101100.28;4951293;28;20039;-68
2021/04/13 04:44:35;;;;;;;26.77;17.58;;;;;;;-0.46;77.83;101107.09;4951039;28;20043;-68
2021/04/13 04:47:01;;;;;;;31.55;22.70;;;;;;;-0.45;77.80;101107.97;4950522;28;20031;-68
2021/04/13 04:49:47;;;;;;;28.45;17.33;;;;;;;-0.46;77.72;101114.88;4951176;28;20058;-69
2021/04/13 04:52:13;;;;;;;28.05;18.33;;;;;;;-0.47;78.19;101115.72;4934242;28;20043;-68
2021/04/13 04:54:38;;;;;;;30.88;22.33;;;;;;;-0.48;78.70;101123.47;4951542;28;20130;-69
2021/04/13 04:57:04;;;;;;;23.95;16.50;;;;;;;-0.48;78.29;101118.28;4951582;28;20031;-68
2021/04/13 04:59:30;;;;;;;33.70;17.98;;;;;;;-0.45;78.52;101123.50;4952191;28;20032;-68
2021/04/13 05:01:55;;;;;;;24.13;17.27;;;;;;;-0.41;77.92;101127.03;4938453;28;20046;-68
2021/04/13 05:04:20;;;;;;;23.35;17.25;;;;;;;-0.41;77.96;101125.31;4932443;29;20057;-68
2021/04/13 05:06:46;;;;;;;24.15;16.80;;;;;;;-0.40;77.37;101126.19;4931895;29;20066;-69
2021/04/13 05:09:11;;;;;;;25.70;17.73;;;;;;;-0.41;77.99;101133.09;4900030;29;20111;-68
2021/04/13 05:11:36;;;;;;;26.38;17.15;;;;;;;-0.40;77.53;101133.94;4935360;29;20027;-68
2021/04/13 05:14:02;;;;;;;28.70;18.73;;;;;;;-0.41;78.25;101140.84;4918437;29;20042;-67
2021/04/13 05:16:27;;;;;;;24.63;17.73;;;;;;;-0.41;78.13;101142.59;4934826;29;20035;-69
2021/04/13 05:18:53;;;;;;;24.55;16.63;;;;;;;-0.37;78.05;101150.44;4935790;29;20507;-69
2021/04/13 05:21:18;;;;;;;33.35;19.45;;;;;;;-0.32;77.80;101150.50;4935267;29;20035;-69
2021/04/13 05:23:44;;;;;;;23.33;17.73;;;;;;;-0.32;77.69;101150.50;4934844;29;20507;-68
2021/04/13 05:26:10;;;;;;;24.05;16.45;;;;;;;-0.30;77.76;101154.84;4935160;29;20047;-69
2021/04/13 05:28:36;;;;;;;26.70;18.63;;;;;;;-0.26;77.78;101156.66;4954013;28;20039;-69
2021/04/13 05:31:03;;;;;;;26.02;17.98;;;;;;;-0.18;77.00;101158.50;4953901;28;20066;-69
2021/04/13 05:33:28;;;;;;;23.73;17.33;;;;;;;-0.13;76.87;101162.91;4953890;28;20043;-69
2021/04/13 05:35:55;;;;;;;29.27;19.05;;;;;;;-0.02;77.24;101168.28;4954013;28;20028;-68
2021/04/13 05:38:25;;;;;;;29.05;18.38;;;;;;;0.05;76.62;101172.72;4953056;28;20039;-67
2021/04/13 05:40:50;;;;;;;26.95;20.67;;;;;;;0.13;76.67;101171.13;4953936;28;20031;-67
2021/04/13 05:43:17;;;;;;;25.10;16.92;;;;;;;0.31;77.08;101180.03;4959950;28;20043;-69
2021/04/13 05:45:46;;;;;;;24.13;16.65;;;;;;;0.49;76.32;101182.00;4970121;28;20027;-67
2021/04/13 05:48:11;;;;;;;29.27;19.30;;;;;;;0.67;75.83;101190.06;4954367;28;20035;-69
2021/04/13 05:50:42;;;;;;;32.13;19.75;;;;;;;0.83;75.36;101185.94;4953784;28;20368;-68
2021/04/13 05:53:08;;;;;;;27.17;17.10;;;;;;;1.00;74.76;101188.75;4953685;28;20031;-68
2021/04/13 05:55:35;;;;;;;23.55;16.73;;;;;;;1.22;73.68;101195.09;4944738;28;20043;-68
2021/04/13 05:58:05;;;;;;;27.95;19.75;;;;;;;1.39;73.26;101190.94;4934724;29;20043;-69
2021/04/13 06:00:31;;;;;;;27.67;20.02;;;;;;;1.34;73.36;101189.16;4934626;29;20039;-68
2021/04/13 06:02:58;;;;;;;38.75;21.95;;;;;;;1.47;72.97;101191.03;4934741;29;20042;-67
2021/04/13 06:05:26;;;;;;;25.17;19.05;;;;;;;1.74;73.04;101193.03;4934369;29;20047;-68
2021/04/13 06:07:52;;;;;;;26.73;21.70;;;;;;;1.85;72.04;101194.03;4934214;29;20039;-68
2021/04/13 06:10:18;;;;;;;30.75;21.45;;;;;;;2.06;71.81;101188.13;4934271;29;20387;-69
2021/04/13 06:12:49;;;;;;;28.85;20.30;;;;;;;2.17;71.62;101195.13;4934602;29;20424;-67
2021/04/13 06:15:17;;;;;;;27.10;18.65;;;;;;;2.39;71.03;101194.44;4935900;29;20562;-67
2021/04/13 06:17:43;;;;;;;31.55;21.98;;;;;;;2.69;69.94;101193.78;4934999;29;20059;-68
2021/04/13 06:20:09;;;;;;;27.33;18.73;;;;;;;3.01;69.36;101196.53;4934523;29;20687;-68
2021/04/13 06:22:34;;;;;;;23.02;16.33;;;;;;;3.14;68.95;101205.25;4933428;29;20035;-68
2021/04/13 06:24:59;;;;;;;20.80;15.77;;;;;;;3.33;68.84;101202.75;4933948;29;20036;-68
2021/04/13 06:27:25;;;;;;;27.65;17.45;;;;;;;3.50;67.07;101197.59;4934062;29;20429;-68
2021/04/13 06:29:50;;;;;;;26.75;17.20;;;;;;;3.63;66.78;101205.41;4933900;29;20503;-69
2021/04/13 06:32:16;;;;;;;20.00;13.98;;;;;;;4.05;65.76;101214.16;4933677;29;20114;-68
2021/04/13 06:34:41;;;;;;;30.60;18.85;;;;;;;4.57;63.64;101208.03;4933526;29;20444;-69
2021/04/13 06:37:09;;;;;;;21.55;14.38;;;;;;;5.05;62.01;101216.63;4933342;29;20048;-70
2021/04/13 06:39:37;;;;;;;22.45;15.25;;;;;;;5.46;60.46;101217.31;4933513;29;20040;-67
2021/04/13 06:42:04;;;;;;;20.02;13.38;;;;;;;6.02;58.22;101203.03;4933878;29;20036;-68
2021/04/13 06:45:04;;;;;;;27.65;14.65;;;;;;;6.54;57.42;101214.81;4916553;29;20123;-68
2021/04/13 06:47:35;;;;;;;33.22;16.55;;;;;;;7.10;55.21;101208.97;4932057;29;20038;-68
2021/04/13 06:50:19;;;;;;;20.23;10.80;;;;;;;7.22;53.96;101214.94;4933685;29;20078;-68
2021/04/13 06:52:50;;;;;;;16.55;11.60;;;;;;;7.30;54.96;101210.47;4933495;29;20047;-68
2021/04/13 06:55:21;;;;;;;12.40;9.32;;;;;;;7.77;52.54;101213.31;4932839;29;20397;-69
2021/04/13 06:58:02;;;;;;;24.23;11.65;;;;;;;8.13;51.37;101215.38;4936015;29;20063;-69
2021/04/13 07:01:05;;;;;;;17.13;9.02;;;;;;;8.54;50.03;101223.47;4933048;29;20115;-68
2021/04/13 07:03:35;;;;;;;15.38;9.43;;;;;;;8.75;49.61;101217.84;4933875;29;20031;-68
2021/04/13 07:06:15;;;;;;;15.25;9.02;;;;;;;8.90;48.94;101218.47;4933245;29;20074;-68
2021/04/13 07:08:46;;;;;;;11.63;6.68;;;;;;;9.49;47.50;101221.63;4933926;29;20032;-69
2021/04/13 07:11:25;;;;;;;13.80;9.13;;;;;;;9.93;46.91;101225.03;4933561;29;20042;-68
2021/04/13 07:13:58;;;;;;;16.23;8.85;;;;;;;9.87;46.02;101219.91;4933076;29;20048;-68
2021/04/13 07:16:36;;;;;;;14.88;10.25;;;;;;;10.30;45.30;101218.91;4933027;29;20040;-68
2021/04/13 07:19:21;;;;;;;12.38;8.27;;;;;;;10.43;44.79;101217.66;4932958;29;20058;-67
2021/04/13 07:21:59;;;;;;;19.83;7.63;;;;;;;10.23;46.12;101220.78;4932937;29;20039;-67
2021/04/13 07:24:25;;;;;;;18.48;8.95;;;;;;;10.25;45.24;101218.13;4932913;29;20035;-69
2021/04/13 07:27:03;;;;;;;16.85;10.07;;;;;;;10.22;45.32;101215.56;4932289;29;20542;-68
2021/04/13 07:29:39;;;;;;;15.50;7.38;;;;;;;10.14;45.40;101221.03;4932656;29;20051;-68
2021/04/13 07:32:11;;;;;;;19.05;8.55;;;;;;;9.95;45.32;101222.38;4932724;28;20043;-68
2021/04/13 07:34:38;;;;;;;12.88;7.82;;;;;;;9.83;45.66;101224.38;4932484;29;20043;-69
2021/04/13 07:37:19;;;;;;;19.67;6.78;;;;;;;10.17;45.06;101220.94;4915728;29;20391;-68
2021/04/13 07:39:48;;;;;;;14.52;7.85;;;;;;;10.29;44.39;101217.19;4933552;29;20051;-67
2021/04/13 07:42:26;;;;;;;11.05;6.85;;;;;;;10.37;44.78;101217.84;4932203;29;20046;-68
2021/04/13 07:45:20;;;;;;;10.95;7.00;;;;;;;10.37;44.22;101223.13;4933070;29;20038;-68
2021/04/13 07:48:21;;;;;;;14.63;7.07;;;;;;;10.63;43.16;101226.84;4925569;28;20495;-68
2021/04/13 07:51:03;;;;;;;9.75;7.03;;;;;;;10.95;42.98;101224.22;4932949;29;20061;-67
2021/04/13 07:53:47;;;;;;;12.32;6.20;;;;;;;11.30;42.27;101225.00;4932875;28;20031;-69
2021/04/13 07:56:27;;;;;;;12.60;5.65;;;;;;;11.53;40.92;101221.66;4933063;29;20111;-67
2021/04/13 07:59:06;;;;;;;9.40;5.28;;;;;;;11.68;40.16;101224.75;4935305;28;20071;-67
2021/04/13 08:01:32;;;;;;;52.63;7.45;;;;;;;11.67;40.55;101221.25;4932144;29;20491;-67
2021/04/13 08:03:57;;;;;;;13.68;5.40;;;;;;;12.15;40.09;101220.63;4932703;29;20042;-68
2021/04/13 08:06:28;;;;;;;14.20;6.22;;;;;;;12.68;38.95;101220.59;4932041;29;20047;-68
2021/04/13 08:09:12;;;;;;;17.23;6.75;;;;;;;13.00;37.71;101221.22;4932744;29;20036;-69
2021/04/13 08:11:37;;;;;;;10.43;5.70;;;;;;;13.22;36.81;101225.75;4914558;29;20082;-68
2021/04/13 08:14:21;;;;;;;12.10;6.10;;;;;;;13.43;37.20;101230.25;4932207;29;20497;-66
2021/04/13 08:16:47;;;;;;;15.25;4.80;;;;;;;13.17;36.72;101223.28;4932314;29;20556;-66
2021/04/13 08:19:17;;;;;;;11.43;4.85;;;;;;;12.23;39.27;101223.00;4943922;28;20035;-67
2021/04/13 08:21:42;;;;;;;9.20;4.90;;;;;;;11.67;40.14;101223.88;4959270;28;20035;-66
2021/04/13 08:24:34;;;;;;;9.07;5.35;;;;;;;11.96;39.42;101227.41;4962251;28;20038;-64
2021/04/13 08:27:31;;;;;;;13.18;5.22;;;;;;;12.60;38.70;101230.59;4969689;28;20102;-66
2021/04/13 08:30:28;;;;;;;29.73;6.10;;;;;;;11.66;39.61;101224.78;4937764;28;20087;-65
2021/04/13 08:33:04;;;;;;;14.48;5.65;;;;;;;11.90;39.09;101230.25;4942628;28;20027;-66
2021/04/13 08:35:36;;;;;;;11.85;5.20;;;;;;;12.03;38.46;101223.66;4964786;28;20042;-65
2021/04/13 08:38:32;;;;;;;18.50;7.32;;;;;;;12.52;38.02;101226.47;4945080;28;20046;-65
2021/04/13 08:41:01;;;;;;;10.97;5.30;;;;;;;11.64;38.80;101221.34;4944693;28;20084;-65
2021/04/13 08:43:35;;;;;;;10.73;6.68;;;;;;;11.74;38.79;101230.72;4946309;28;20386;-65
2021/04/13 08:46:35;;;;;;;13.32;8.35;;;;;;;11.24;40.12;101230.44;4949156;28;20660;-65
2021/04/13 08:49:06;;;;;;;9.45;6.63;;;;;;;10.32;42.21;101227.63;4951712;28;20111;-67
2021/04/13 08:51:36;;;;;;;11.68;5.70;;;;;;;9.71;44.00;101232.56;4952628;28;20046;-66
2021/04/13 08:54:19;;;;;;;12.57;5.30;;;;;;;9.38;44.34;101228.91;4950726;28;20042;-65
2021/04/13 08:56:56;;;;;;;21.83;12.38;;;;;;;9.19;45.19;101234.53;4951051;28;20125;-66
2021/04/13 08:59:39;;;;;;;17.80;6.20;;;;;;;9.09;43.79;101238.25;4951308;28;20039;-69
2021/04/13 09:02:31;;;;;;;23.40;9.63;;;;;;;8.74;45.08;101237.16;4950555;28;20043;-69
2021/04/13 09:05:11;;;;;;;13.80;6.43;;;;;;;8.44;46.26;101233.31;4949492;28;20039;-69
2021/04/13 09:08:03;;;;;;;10.52;4.88;;;;;;;8.19;47.86;101243.31;4947272;28;20051;-69
2021/04/13 09:10:31;;;;;;;18.95;6.43;;;;;;;8.07;48.10;101246.13;4928094;29;20130;-69
2021/04/13 09:13:07;;;;;;;15.68;4.88;;;;;;;8.11;47.33;101251.31;4930327;29;20550;-70
2021/04/13 09:15:34;;;;;;;11.88;5.05;;;;;;;8.10;46.76;101252.22;4929864;29;20050;-69
2021/04/13 09:18:12;;;;;;;11.23;4.47;;;;;;;8.71;45.19;101249.47;4930772;28;20039;-69
2021/04/13 09:20:45;;;;;;;11.88;3.88;;;;;;;9.10;44.91;101244.38;4933454;28;20039;-69
2021/04/13 09:23:23;;;;;;;9.45;4.57;;;;;;;8.72;44.45;101251.22;4954264;28;20042;-69
2021/04/13 09:25:52;;;;;;;13.50;3.90;;;;;;;8.38;44.71;101255.25;4967714;28;20034;-69
2021/04/13 09:28:25;;;;;;;11.27;3.58;;;;;;;8.06;45.23;101249.66;4965239;28;20573;-69
2021/04/13 09:31:08;;;;;;;15.15;5.75;;;;;;;9.26;41.85;101245.81;4949018;28;20148;-69
2021/04/13 09:33:40;;;;;;;10.70;4.22;;;;;;;8.93;42.21;101245.56;4948726;28;20099;-69
2021/04/13 09:36:11;;;;;;;10.48;3.97;;;;;;;8.65;43.59;101252.22;4948169;28;20035;-69
2021/04/13 09:38:42;;;;;;;9.63;4.40;;;;;;;8.21;44.53;101248.56;4948470;28;20514;-68
2021/04/13 09:41:47;;;;;;;18.38;4.63;;;;;;;7.93;46.36;101249.84;4948810;28;20126;-72
2021/04/13 09:44:41;;;;;;;11.30;4.65;;;;;;;7.89;46.87;101250.78;4948193;28;20039;-69
2021/04/13 09:47:16;;;;;;;14.70;6.32;;;;;;;7.92;47.66;101253.34;4948523;28;20043;-69
2021/04/13 09:49:44;;;;;;;10.25;5.10;;;;;;;7.78;47.69;101250.06;4948942;28;20035;-70
2021/04/13 09:52:33;;;;;;;14.00;5.15;;;;;;;7.81;47.84;101246.53;4948536;28;20102;-70
2021/04/13 09:55:24;;;;;;;9.82;4.82;;;;;;;9.82;42.77;101248.09;4948591;28;20403;-69
2021/04/13 09:57:58;;;;;;;11.45;4.35;;;;;;;9.11;43.43;101239.09;4927112;28;20043;-70
2021/04/13 10:00:48;;;;;;;11.05;4.20;;;;;;;8.78;43.94;101244.06;4948876;28;20039;-69
2021/04/13 10:03:19;;;;;;;8.25;3.50;;;;;;;8.47;44.64;101241.16;4948126;28;20054;-68
2021/04/13 10:05:49;;;;;;;8.75;3.50;;;;;;;8.40;44.13;101243.91;4948131;28;20039;-69
2021/04/13 10:08:14;;;;;;;13.02;4.18;;;;;;;9.43;41.89;101230.53;4950358;28;20036;-69
2021/04/13 10:10:56;;;;;;;14.80;3.88;;;;;;;12.01;37.90;101233.41;4953069;28;20034;-69
2021/04/13 10:13:48;;;;;;;9.00;6.20;;;;;;;14.00;33.78;101224.53;4964806;28;20035;-70
2021/04/13 10:16:32;;;;;;;6.32;4.03;;;;;;;15.14;31.99;101217.94;4952747;28;20042;-69
2021/04/13 10:19:30;;;;;;;9.70;3.85;;;;;;;15.74;30.01;101217.81;4960962;28;20123;-70
2021/04/13 10:22:20;;;;;;;18.23;4.90;;;;;;;16.41;29.13;101211.81;4964650;28;20050;-69
2021/04/13 10:24:58;;;;;;;50.97;9.55;;;;;;;14.66;30.26;101212.03;4947689;28;20058;-69
2021/04/13 10:27:26;;;;;;;8.43;3.20;;;;;;;13.43;31.94;101203.75;4946268;28;20537;-69
2021/04/13 10:30:13;;;;;;;8.27;4.05;;;;;;;13.62;31.72;101205.72;4959668;28;20051;-69
2021/04/13 10:33:08;;;;;;;9.18;2.58;;;;;;;11.85;34.41;101214.50;4969320;28;20106;-70
2021/04/13 10:35:52;;;;;;;8.07;3.53;;;;;;;11.04;36.07;101212.53;4944488;29;20036;-69
2021/04/13 10:38:38;;;;;;;12.63;2.85;;;;;;;10.46;37.76;101201.78;4946509;29;20075;-70
2021/04/13 10:41:29;;;;;;;10.27;3.88;;;;;;;9.84;38.83;101202.38;4940889;29;20043;-69
2021/04/13 10:44:26;;;;;;;9.95;2.88;;;;;;;9.56;39.96;101207.44;4936409;29;20048;-69
2021/04/13 10:47:24;;;;;;;7.60;2.70;;;;;;;9.34;39.52;101195.63;4934032;29;20046;-69
2021/04/13 10:50:16;;;;;;;10.57;2.58;;;;;;;9.62;40.02;101196.78;4933114;29;20039;-69
2021/04/13 10:52:47;;;;;;;6.18;2.00;;;;;;;9.78;37.10;101192.00;4933568;29;20046;-68
2021/04/13 10:55:34;;;;;;;5.30;2.08;;;;;;;9.91;36.90;101189.09;4933167;29;20048;-69
2021/04/13 10:58:17;;;;;;;5.38;2.38;;;;;;;9.77;36.96;101181.50;4933739;29;20075;-69
2021/04/13 11:01:03;;;;;;;9.27;3.05;;;;;;;9.36;37.34;101184.19;4935703;28;20043;-68
2021/04/13 11:04:07;;;;;;;4.68;1.88;;;;;;;9.44;37.59;101184.88;4933345;29;20542;-68
2021/04/13 11:06:51;;;;;;;4.95;2.45;;;;;;;9.60;37.89;101185.41;4900543;29;20068;-68
2021/04/13 11:09:40;;;;;;;6.70;2.53;;;;;;;9.84;37.04;101177.81;4932629;29;20130;-68
2021/04/13 11:12:05;;;;;;;7.28;2.67;;;;;;;9.45;37.39;101178.72;4932862;29;20032;-70
2021/04/13 11:14:46;;;;;;;9.52;3.20;;;;;;;9.16;40.85;101186.38;4940104;28;20376;-68
2021/04/13 11:17:26;;;;;;;10.38;4.00;;;;;;;8.99;41.15;101179.69;4951551;28;20039;-68
2021/04/13 11:20:18;;;;;;;13.10;3.65;;;;;;;8.84;42.28;101180.00;4964994;28;20038;-69
2021/04/13 11:23:04;;;;;;;12.73;3.28;;;;;;;8.71;42.23;101182.00;4942492;28;20039;-69
2021/04/13 11:25:30;;;;;;;8.60;3.38;;;;;;;8.59;42.17;101176.97;4957348;28;20038;-70
2021/04/13 11:28:26;;;;;;;10.55;2.50;;;;;;;8.70;41.97;101176.78;4951693;28;20046;-70
2021/04/13 11:31:19;;;;;;;9.30;2.97;;;;;;;8.47;41.71;101177.22;4946539;28;20038;-68
2021/04/13 11:33:58;;;;;;;17.38;3.20;;;;;;;8.55;41.31;101173.53;4927823;29;20042;-70
2021/04/13 11:36:43;;;;;;;6.35;2.28;;;;;;;8.75;40.89;101173.16;4943633;28;20058;-69
2021/04/13 11:39:27;;;;;;;8.25;2.78;;;;;;;9.06;40.76;101164.66;4905695;28;20050;-69
2021/04/13 11:41:55;;;;;;;6.75;2.28;;;;;;;9.21;39.95;101166.97;4946281;28;20035;-68
2021/04/13 11:44:37;;;;;;;8.32;2.95;;;;;;;9.30;38.21;101165.88;4946965;28;20496;-70
2021/04/13 11:47:08;;;;;;;16.35;3.38;;;;;;;9.22;38.23;101152.03;4945799;28;20460;-70
2021/04/13 11:49:42;;;;;;;5.75;2.67;;;;;;;9.46;36.57;101159.38;4928764;29;20027;-69
2021/04/13 11:52:10;;;;;;;5.60;2.35;;;;;;;9.51;36.50;101151.38;4946040;28;20406;-69
2021/04/13 11:54:35;;;;;;;6.00;2.33;;;;;;;9.62;36.99;101151.13;4946189;28;20043;-69
2021/04/13 11:57:12;;;;;;;6.05;2.58;;;;;;;9.72;36.41;101146.50;4946232;28;20566;-69